sensor_id;sensor_type;location;lat;lon;timestamp;pressure;altitude;pressure_sealevel;temperature;humidity
79703;BME280;69172;52.352;5.006;2024-03-02T00:02:26;99740.47;;;8.75;98.49
79703;BME280;69172;52.352;5.006;2024-03-02T00:05:01;99755.53;;;8.68;99.59
79703;BME280;69172;52.352;5.006;2024-03-02T00:07:27;99747.84;;;8.68;98.89
79703;BME280;69172;52.352;5.006;2024-03-02T00:09:54;99763.91;;;8.64;99.61
79703;BME280;69172;52.352;5.006;2024-03-02T00:12:19;99750.38;;;8.49;100.00
79703;BME280;69172;52.352;5.006;2024-03-02T00:14:52;99775.41;;;8.54;100.00
79703;BME280;69172;52.352;5.006;2024-03-02T00:17:24;99817.56;;;8.43;100.00
79703;BME280;69172;52.352;5.006;2024-03-02T00:19:51;99819.28;;;8.09;100.00
79703;BME280;69172;52.352;5.006;2024-03-02T00:29:03;99824.09;;;7.35;100.00
79703;BME280;69172;52.352;5.006;2024-03-02T00:31:31;99822.97;;;7.30;100.00
79703;BME280;69172;52.352;5.006;2024-03-02T00:34:02;99816.97;;;7.30;100.00
79703;BME280;69172;52.352;5.006;2024-03-02T00:36:48;99837.91;;;7.39;100.00
79703;BME280;69172;52.352;5.006;2024-03-02T00:39:16;99836.53;;;7.29;100.00
79703;BME280;69172;52.352;5.006;2024-03-02T00:41:42;99840.88;;;7.30;100.00
79703;BME280;69172;52.352;5.006;2024-03-02T00:44:11;99835.97;;;7.35;100.00
79703;BME280;69172;52.352;5.006;2024-03-02T00:46:48;99827.03;;;7.27;100.00
79703;BME280;69172;52.352;5.006;2024-03-02T00:49:22;99839.19;;;7.31;100.00
79703;BME280;69172;52.352;5.006;2024-03-02T00:51:49;99840.59;;;7.26;100.00
79703;BME280;69172;52.352;5.006;2024-03-02T00:54:19;99852.28;;;7.20;100.00
79703;BME280;69172;52.352;5.006;2024-03-02T00:56:53;99849.44;;;7.14;100.00
79703;BME280;69172;52.352;5.006;2024-03-02T00:59:20;99841.31;;;7.07;100.00
79703;BME280;69172;52.352;5.006;2024-03-02T01:01:48;99841.03;;;7.01;100.00
79703;BME280;69172;52.352;5.006;2024-03-02T01:04:14;99847.72;;;6.99;100.00
79703;BME280;69172;52.352;5.006;2024-03-02T01:06:39;99856.66;;;7.07;100.00
79703;BME280;69172;52.352;5.006;2024-03-02T01:09:06;99844.69;;;6.90;100.00
79703;BME280;69172;52.352;5.006;2024-03-02T01:11:31;99849.97;;;6.93;100.00
79703;BME280;69172;52.352;5.006;2024-03-02T01:13:56;99838.69;;;6.89;100.00
79703;BME280;69172;52.352;5.006;2024-03-02T01:16:22;99844.69;;;6.90;100.00
79703;BME280;69172;52.352;5.006;2024-03-02T01:18:48;99855.84;;;6.92;100.00
79703;BME280;69172;52.352;5.006;2024-03-02T01:21:14;99854.81;;;6.88;100.00
79703;BME280;69172;52.352;5.006;2024-03-02T01:23:40;99869.25;;;6.88;100.00
79703;BME280;69172;52.352;5.006;2024-03-02T01:26:07;99856.47;;;6.88;100.00
79703;BME280;69172;52.352;5.006;2024-03-02T01:28:33;99846.78;;;6.82;100.00
79703;BME280;69172;52.352;5.006;2024-03-02T01:31:01;99854.56;;;6.84;100.00
79703;BME280;69172;52.352;5.006;2024-03-02T01:33:27;99862.00;;;6.79;100.00
79703;BME280;69172;52.352;5.006;2024-03-02T01:35:52;99863.00;;;6.83;100.00
79703;BME280;69172;52.352;5.006;2024-03-02T01:38:18;99851.31;;;6.72;100.00
79703;BME280;69172;52.352;5.006;2024-03-02T01:40:45;99855.28;;;6.81;100.00
79703;BME280;69172;52.352;5.006;2024-03-02T01:43:11;99838.56;;;6.72;100.00
79703;BME280;69172;52.352;5.006;2024-03-02T01:45:36;99856.59;;;6.75;100.00
79703;BME280;69172;52.352;5.006;2024-03-02T01:48:04;99833.03;;;6.64;100.00
79703;BME280;69172;52.352;5.006;2024-03-02T01:50:34;99831.00;;;6.73;100.00
79703;BME280;69172;52.352;5.006;2024-03-02T01:53:00;99843.50;;;6.69;100.00
79703;BME280;69172;52.352;5.006;2024-03-02T01:55:26;99864.75;;;6.68;100.00
79703;BME280;69172;52.352;5.006;2024-03-02T01:57:54;99871.47;;;6.66;100.00
79703;BME280;69172;52.352;5.006;2024-03-02T02:00:20;99879.00;;;6.64;100.00
79703;BME280;69172;52.352;5.006;2024-03-02T02:02:48;99885.06;;;6.66;100.00
79703;BME280;69172;52.352;5.006;2024-03-02T02:05:14;99886.69;;;6.64;100.00
79703;BME280;69172;52.352;5.006;2024-03-02T02:07:43;99884.28;;;6.67;100.00
79703;BME280;69172;52.352;5.006;2024-03-02T02:10:12;99869.28;;;6.57;100.00
79703;BME280;69172;52.352;5.006;2024-03-02T02:12:37;99874.72;;;6.63;100.00
79703;BME280;69172;52.352;5.006;2024-03-02T02:15:22;99904.56;;;6.64;100.00
79703;BME280;69172;52.352;5.006;2024-03-02T02:17:49;99901.94;;;6.63;100.00
79703;BME280;69172;52.352;5.006;2024-03-02T02:20:16;99867.59;;;6.57;100.00
79703;BME280;69172;52.352;5.006;2024-03-02T02:25:27;99877.72;;;6.56;100.00
79703;BME280;69172;52.352;5.006;2024-03-02T02:27:53;99880.44;;;6.59;100.00
79703;BME280;69172;52.352;5.006;2024-03-02T02:30:24;99887.03;;;6.55;100.00
79703;BME280;69172;52.352;5.006;2024-03-02T02:32:50;99883.59;;;6.55;100.00
79703;BME280;69172;52.352;5.006;2024-03-02T02:35:16;99875.69;;;6.50;100.00
79703;BME280;69172;52.352;5.006;2024-03-02T02:37:43;99879.91;;;6.50;100.00
79703;BME280;69172;52.352;5.006;2024-03-02T02:40:09;99877.06;;;6.44;100.00
79703;BME280;69172;52.352;5.006;2024-03-02T02:42:34;99892.69;;;6.50;100.00
79703;BME280;69172;52.352;5.006;2024-03-02T02:45:00;99882.94;;;6.43;100.00
79703;BME280;69172;52.352;5.006;2024-03-02T02:47:26;99886.91;;;6.38;100.00
79703;BME280;69172;52.352;5.006;2024-03-02T02:50:02;99875.56;;;6.33;100.00
79703;BME280;69172;52.352;5.006;2024-03-02T02:52:34;99890.25;;;6.37;100.00
79703;BME280;69172;52.352;5.006;2024-03-02T02:55:03;99890.16;;;6.35;100.00
79703;BME280;69172;52.352;5.006;2024-03-02T02:57:31;99898.72;;;6.36;100.00
79703;BME280;69172;52.352;5.006;2024-03-02T03:00:00;99904.59;;;6.35;100.00
79703;BME280;69172;52.352;5.006;2024-03-02T03:02:27;99894.56;;;6.38;100.00
79703;BME280;69172;52.352;5.006;2024-03-02T03:04:53;99896.00;;;6.33;100.00
79703;BME280;69172;52.352;5.006;2024-03-02T03:07:20;99891.41;;;6.27;100.00
79703;BME280;69172;52.352;5.006;2024-03-02T03:09:46;99892.72;;;6.35;100.00
79703;BME280;69172;52.352;5.006;2024-03-02T03:12:13;99884.78;;;6.31;100.00
79703;BME280;69172;52.352;5.006;2024-03-02T03:14:40;99898.34;;;6.44;100.00
79703;BME280;69172;52.352;5.006;2024-03-02T03:17:06;99884.97;;;6.34;100.00
79703;BME280;69172;52.352;5.006;2024-03-02T03:19:34;99887.16;;;6.42;100.00
79703;BME280;69172;52.352;5.006;2024-03-02T03:22:00;99898.44;;;6.46;100.00
79703;BME280;69172;52.352;5.006;2024-03-02T03:24:27;99889.88;;;6.45;100.00
79703;BME280;69172;52.352;5.006;2024-03-02T03:26:53;99892.09;;;6.54;100.00
79703;BME280;69172;52.352;5.006;2024-03-02T03:29:19;99895.34;;;6.51;100.00
79703;BME280;69172;52.352;5.006;2024-03-02T03:31:44;99902.72;;;6.47;100.00
79703;BME280;69172;52.352;5.006;2024-03-02T03:34:11;99899.03;;;6.42;100.00
79703;BME280;69172;52.352;5.006;2024-03-02T03:36:41;99897.91;;;6.37;100.00
79703;BME280;69172;52.352;5.006;2024-03-02T03:39:06;99904.97;;;6.41;100.00
79703;BME280;69172;52.352;5.006;2024-03-02T03:41:31;99898.53;;;6.33;100.00
79703;BME280;69172;52.352;5.006;2024-03-02T03:43:57;99916.59;;;6.36;100.00
79703;BME280;69172;52.352;5.006;2024-03-02T03:46:22;99912.09;;;6.32;100.00
79703;BME280;69172;52.352;5.006;2024-03-02T03:48:48;99926.09;;;6.38;100.00
79703;BME280;69172;52.352;5.006;2024-03-02T03:51:14;99922.84;;;6.41;100.00
79703;BME280;69172;52.352;5.006;2024-03-02T03:56:50;99924.06;;;6.33;100.00
79703;BME280;69172;52.352;5.006;2024-03-02T04:05:40;99936.31;;;6.38;100.00
79703;BME280;69172;52.352;5.006;2024-03-02T04:08:29;99933.47;;;6.48;100.00
79703;BME280;69172;52.352;5.006;2024-03-02T04:10:55;99937.63;;;6.46;100.00
79703;BME280;69172;52.352;5.006;2024-03-02T04:13:20;99936.63;;;6.44;100.00
79703;BME280;69172;52.352;5.006;2024-03-02T04:15:48;99928.25;;;6.47;100.00
79703;BME280;69172;52.352;5.006;2024-03-02T04:18:13;99941.84;;;6.46;100.00
79703;BME280;69172;52.352;5.006;2024-03-02T04:20:40;99933.31;;;6.45;100.00
79703;BME280;69172;52.352;5.006;2024-03-02T04:23:06;99933.47;;;6.48;100.00
79703;BME280;69172;52.352;5.006;2024-03-02T04:25:34;99925.28;;;6.39;100.00
79703;BME280;69172;52.352;5.006;2024-03-02T04:28:00;99939.53;;;6.50;100.00
79703;BME280;69172;52.352;5.006;2024-03-02T04:30:26;99939.72;;;6.53;100.00
79703;BME280;69172;52.352;5.006;2024-03-02T04:32:53;99946.25;;;6.48;100.00
79703;BME280;69172;52.352;5.006;2024-03-02T04:35:21;99944.84;;;6.53;100.00
79703;BME280;69172;52.352;5.006;2024-03-02T04:37:47;99936.09;;;6.50;100.00
79703;BME280;69172;52.352;5.006;2024-03-02T04:40:13;99945.53;;;6.51;100.00
79703;BME280;69172;52.352;5.006;2024-03-02T04:42:39;99942.22;;;6.52;100.00
79703;BME280;69172;52.352;5.006;2024-03-02T04:45:06;99944.59;;;6.49;100.00
79703;BME280;69172;52.352;5.006;2024-03-02T04:47:33;99954.44;;;6.43;100.00
79703;BME280;69172;52.352;5.006;2024-03-02T04:49:59;99955.03;;;6.39;100.00
79703;BME280;69172;52.352;5.006;2024-03-02T04:52:24;99954.91;;;6.36;100.00
79703;BME280;69172;52.352;5.006;2024-03-02T04:54:50;99946.25;;;6.34;100.00
79703;BME280;69172;52.352;5.006;2024-03-02T04:57:34;99962.91;;;6.27;100.00
79703;BME280;69172;52.352;5.006;2024-03-02T05:00:05;99963.84;;;6.15;100.00
79703;BME280;69172;52.352;5.006;2024-03-02T05:02:34;99969.06;;;6.16;100.00
79703;BME280;69172;52.352;5.006;2024-03-02T05:04:59;99973.19;;;6.14;100.00
79703;BME280;69172;52.352;5.006;2024-03-02T05:07:26;99969.47;;;6.09;100.00
79703;BME280;69172;52.352;5.006;2024-03-02T05:09:52;99974.38;;;6.06;100.00
79703;BME280;69172;52.352;5.006;2024-03-02T05:12:17;99968.56;;;5.94;100.00
79703;BME280;69172;52.352;5.006;2024-03-02T05:15:01;99969.16;;;5.90;100.00
79703;BME280;69172;52.352;5.006;2024-03-02T05:17:27;99973.47;;;5.91;100.00
79703;BME280;69172;52.352;5.006;2024-03-02T05:19:53;99974.19;;;5.88;100.00
79703;BME280;69172;52.352;5.006;2024-03-02T05:22:19;99985.97;;;5.86;100.00
79703;BME280;69172;52.352;5.006;2024-03-02T05:24:44;99989.19;;;5.84;100.00
79703;BME280;69172;52.352;5.006;2024-03-02T05:27:10;99983.97;;;5.82;100.00
79703;BME280;69172;52.352;5.006;2024-03-02T05:29:35;99982.56;;;5.73;100.00
79703;BME280;69172;52.352;5.006;2024-03-02T05:32:01;99978.56;;;5.63;100.00
79703;BME280;69172;52.352;5.006;2024-03-02T05:34:26;99982.31;;;5.55;100.00
79703;BME280;69172;52.352;5.006;2024-03-02T05:36:52;99994.88;;;5.52;100.00
79703;BME280;69172;52.352;5.006;2024-03-02T05:39:21;99993.81;;;5.49;100.00
79703;BME280;69172;52.352;5.006;2024-03-02T05:41:49;99985.50;;;5.38;100.00
79703;BME280;69172;52.352;5.006;2024-03-02T05:44:21;99990.41;;;5.35;100.00
79703;BME280;69172;52.352;5.006;2024-03-02T05:50:09;99998.16;;;5.36;100.00
79703;BME280;69172;52.352;5.006;2024-03-02T05:52:34;100003.16;;;5.35;100.00
79703;BME280;69172;52.352;5.006;2024-03-02T05:55:00;99992.38;;;5.26;100.00
79703;BME280;69172;52.352;5.006;2024-03-02T05:57:26;100007.69;;;5.26;100.00
79703;BME280;69172;52.352;5.006;2024-03-02T06:00:04;100006.50;;;5.21;100.00
79703;BME280;69172;52.352;5.006;2024-03-02T06:02:33;100019.94;;;5.18;100.00
79703;BME280;69172;52.352;5.006;2024-03-02T06:05:00;100013.88;;;5.16;100.00
79703;BME280;69172;52.352;5.006;2024-03-02T06:07:27;100014.16;;;5.21;100.00
79703;BME280;69172;52.352;5.006;2024-03-02T06:09:52;100010.44;;;5.16;100.00
79703;BME280;69172;52.352;5.006;2024-03-02T06:12:18;100016.81;;;5.09;100.00
79703;BME280;69172;52.352;5.006;2024-03-02T06:14:44;100005.25;;;5.01;100.00
79703;BME280;69172;52.352;5.006;2024-03-02T06:17:09;99996.44;;;4.96;100.00
79703;BME280;69172;52.352;5.006;2024-03-02T06:19:35;100005.16;;;5.00;100.00
79703;BME280;69172;52.352;5.006;2024-03-02T06:22:00;100016.41;;;5.03;100.00
79703;BME280;69172;52.352;5.006;2024-03-02T06:24:27;100009.66;;;5.04;100.00
79703;BME280;69172;52.352;5.006;2024-03-02T06:26:52;100012.41;;;5.07;100.00
79703;BME280;69172;52.352;5.006;2024-03-02T06:29:18;100022.03;;;5.11;100.00
79703;BME280;69172;52.352;5.006;2024-03-02T06:31:43;100019.63;;;5.14;100.00
79703;BME280;69172;52.352;5.006;2024-03-02T06:34:09;100019.75;;;5.15;100.00
79703;BME280;69172;52.352;5.006;2024-03-02T06:36:38;100026.91;;;5.21;100.00
79703;BME280;69172;52.352;5.006;2024-03-02T06:39:05;100028.84;;;5.25;100.00
79703;BME280;69172;52.352;5.006;2024-03-02T06:41:30;100027.19;;;5.25;100.00
79703;BME280;69172;52.352;5.006;2024-03-02T06:43:57;100042.94;;;5.33;100.00
79703;BME280;69172;52.352;5.006;2024-03-02T06:46:25;100037.97;;;5.34;100.00
79703;BME280;69172;52.352;5.006;2024-03-02T06:48:51;100049.41;;;5.41;100.00
79703;BME280;69172;52.352;5.006;2024-03-02T06:51:16;100036.84;;;5.44;100.00
79703;BME280;69172;52.352;5.006;2024-03-02T06:53:43;100044.22;;;5.53;100.00
79703;BME280;69172;52.352;5.006;2024-03-02T06:56:08;100043.50;;;5.55;100.00
79703;BME280;69172;52.352;5.006;2024-03-02T06:58:34;100035.28;;;5.59;100.00
79703;BME280;69172;52.352;5.006;2024-03-02T07:00:59;100032.41;;;5.68;100.00
79703;BME280;69172;52.352;5.006;2024-03-02T07:03:29;100038.19;;;5.78;100.00
79703;BME280;69172;52.352;5.006;2024-03-02T07:05:55;100035.63;;;5.78;100.00
79703;BME280;69172;52.352;5.006;2024-03-02T07:08:20;100035.00;;;5.82;100.00
79703;BME280;69172;52.352;5.006;2024-03-02T07:10:48;100035.81;;;5.81;100.00
79703;BME280;69172;52.352;5.006;2024-03-02T07:13:15;100033.78;;;5.76;100.00
79703;BME280;69172;52.352;5.006;2024-03-02T07:15:41;100045.84;;;5.78;100.00
79703;BME280;69172;52.352;5.006;2024-03-02T07:18:25;100037.28;;;5.78;100.00
79703;BME280;69172;52.352;5.006;2024-03-02T07:20:51;100050.13;;;5.79;100.00
79703;BME280;69172;52.352;5.006;2024-03-02T07:23:32;100049.34;;;5.80;100.00
79703;BME280;69172;52.352;5.006;2024-03-02T07:26:03;100039.84;;;5.78;100.00
79703;BME280;69172;52.352;5.006;2024-03-02T07:28:31;100054.66;;;5.83;100.00
79703;BME280;69172;52.352;5.006;2024-03-02T07:31:04;100051.69;;;5.90;100.00
79703;BME280;69172;52.352;5.006;2024-03-02T07:37:06;100067.53;;;6.13;100.00
79703;BME280;69172;52.352;5.006;2024-03-02T07:39:31;100064.91;;;6.11;100.00
79703;BME280;69172;52.352;5.006;2024-03-02T07:41:57;100070.03;;;6.26;100.00
79703;BME280;69172;52.352;5.006;2024-03-02T07:44:25;100057.78;;;6.20;100.00
79703;BME280;69172;52.352;5.006;2024-03-02T07:47:08;100071.69;;;6.25;100.00
79703;BME280;69172;52.352;5.006;2024-03-02T07:49:35;100072.34;;;6.36;100.00
79703;BME280;69172;52.352;5.006;2024-03-02T07:52:02;100078.31;;;6.36;100.00
79703;BME280;69172;52.352;5.006;2024-03-02T07:54:35;100076.03;;;6.26;100.00
79703;BME280;69172;52.352;5.006;2024-03-02T08:00:23;100081.06;;;6.39;100.00
79703;BME280;69172;52.352;5.006;2024-03-02T08:02:50;100085.84;;;6.48;100.00
79703;BME280;69172;52.352;5.006;2024-03-02T08:05:19;100089.34;;;6.50;100.00
79703;BME280;69172;52.352;5.006;2024-03-02T08:07:47;100088.06;;;6.56;100.00
79703;BME280;69172;52.352;5.006;2024-03-02T08:10:15;100074.94;;;6.65;100.00
79703;BME280;69172;52.352;5.006;2024-03-02T08:12:41;100079.25;;;6.81;100.00
79703;BME280;69172;52.352;5.006;2024-03-02T08:15:06;100084.28;;;6.94;100.00
79703;BME280;69172;52.352;5.006;2024-03-02T08:17:32;100086.59;;;6.89;100.00
79703;BME280;69172;52.352;5.006;2024-03-02T08:20:00;100088.25;;;6.89;100.00
79703;BME280;69172;52.352;5.006;2024-03-02T08:22:31;100088.00;;;6.84;100.00
79703;BME280;69172;52.352;5.006;2024-03-02T08:24:57;100087.13;;;6.84;100.00
79703;BME280;69172;52.352;5.006;2024-03-02T08:27:27;100090.75;;;6.87;100.00
79703;BME280;69172;52.352;5.006;2024-03-02T08:29:57;100094.44;;;6.92;100.00
79703;BME280;69172;52.352;5.006;2024-03-02T08:32:23;100078.41;;;6.95;100.00
79703;BME280;69172;52.352;5.006;2024-03-02T08:34:49;100071.50;;;6.94;100.00
79703;BME280;69172;52.352;5.006;2024-03-02T08:40:37;100079.78;;;7.04;100.00
79703;BME280;69172;52.352;5.006;2024-03-02T08:43:02;100075.03;;;7.10;100.00
79703;BME280;69172;52.352;5.006;2024-03-02T08:45:38;100079.78;;;7.19;100.00
79703;BME280;69172;52.352;5.006;2024-03-02T08:48:07;100082.88;;;7.28;100.00
79703;BME280;69172;52.352;5.006;2024-03-02T08:50:35;100075.69;;;7.37;100.00
79703;BME280;69172;52.352;5.006;2024-03-02T08:53:04;100059.56;;;7.38;100.00
79703;BME280;69172;52.352;5.006;2024-03-02T08:55:31;100054.84;;;7.46;100.00
79703;BME280;69172;52.352;5.006;2024-03-02T08:57:59;100063.03;;;7.55;100.00
79703;BME280;69172;52.352;5.006;2024-03-02T09:00:26;100067.78;;;7.63;100.00
79703;BME280;69172;52.352;5.006;2024-03-02T09:03:01;100072.91;;;7.63;100.00
79703;BME280;69172;52.352;5.006;2024-03-02T09:05:27;100070.34;;;7.63;100.00
79703;BME280;69172;52.352;5.006;2024-03-02T09:07:53;100074.91;;;7.69;100.00
79703;BME280;69172;52.352;5.006;2024-03-02T09:10:19;100057.56;;;7.63;100.00
79703;BME280;69172;52.352;5.006;2024-03-02T09:12:46;100066.59;;;7.73;100.00
79703;BME280;69172;52.352;5.006;2024-03-02T09:15:13;100075.50;;;7.79;100.00
79703;BME280;69172;52.352;5.006;2024-03-02T09:17:45;100077.16;;;7.79;100.00
79703;BME280;69172;52.352;5.006;2024-03-02T09:20:25;100080.06;;;7.85;100.00
79703;BME280;69172;52.352;5.006;2024-03-02T09:22:51;100083.66;;;7.89;100.00
79703;BME280;69172;52.352;5.006;2024-03-02T09:25:20;100101.03;;;7.94;100.00
79703;BME280;69172;52.352;5.006;2024-03-02T09:27:47;100097.19;;;8.02;100.00
79703;BME280;69172;52.352;5.006;2024-03-02T09:30:13;100082.31;;;7.95;100.00
79703;BME280;69172;52.352;5.006;2024-03-02T09:32:39;100095.50;;;8.03;100.00
79703;BME280;69172;52.352;5.006;2024-03-02T09:35:04;100090.16;;;7.98;100.00
79703;BME280;69172;52.352;5.006;2024-03-02T09:37:32;100100.25;;;8.11;100.00
79703;BME280;69172;52.352;5.006;2024-03-02T09:39:58;100097.75;;;8.13;100.00
79703;BME280;69172;52.352;5.006;2024-03-02T09:42:24;100084.22;;;8.15;100.00
79703;BME280;69172;52.352;5.006;2024-03-02T09:44:53;100103.03;;;8.16;100.00
79703;BME280;69172;52.352;5.006;2024-03-02T09:47:21;100099.41;;;8.27;98.07
79703;BME280;69172;52.352;5.006;2024-03-02T09:49:54;100100.63;;;8.33;99.47
79703;BME280;69172;52.352;5.006;2024-03-02T09:52:22;100092.66;;;8.29;99.05
79703;BME280;69172;52.352;5.006;2024-03-02T09:54:48;100093.72;;;8.32;98.34
79703;BME280;69172;52.352;5.006;2024-03-02T09:57:14;100090.44;;;8.35;97.23
79703;BME280;69172;52.352;5.006;2024-03-02T09:59:40;100101.97;;;8.43;97.00
79703;BME280;69172;52.352;5.006;2024-03-02T10:02:05;100099.00;;;8.52;96.83
79703;BME280;69172;52.352;5.006;2024-03-02T10:04:33;100082.84;;;8.36;96.09
79703;BME280;69172;52.352;5.006;2024-03-02T10:07:18;100098.28;;;8.54;94.42
79703;BME280;69172;52.352;5.006;2024-03-02T10:09:47;100093.25;;;8.56;94.42
79703;BME280;69172;52.352;5.006;2024-03-02T10:12:15;100091.47;;;8.55;92.64
79703;BME280;69172;52.352;5.006;2024-03-02T10:14:41;100082.56;;;8.48;91.93
79703;BME280;69172;52.352;5.006;2024-03-02T10:17:11;100103.00;;;8.63;91.78
79703;BME280;69172;52.352;5.006;2024-03-02T10:19:38;100092.91;;;8.66;91.44
79703;BME280;69172;52.352;5.006;2024-03-02T10:22:06;100096.56;;;8.71;91.02
79703;BME280;69172;52.352;5.006;2024-03-02T10:24:39;100085.38;;;8.69;90.16
79703;BME280;69172;52.352;5.006;2024-03-02T10:27:18;100096.16;;;8.79;89.66
79703;BME280;69172;52.352;5.006;2024-03-02T10:33:11;100077.50;;;8.82;88.95
79703;BME280;69172;52.352;5.006;2024-03-02T10:35:41;100094.59;;;8.99;88.72
79703;BME280;69172;52.352;5.006;2024-03-02T10:38:36;100086.09;;;9.00;88.23
79703;BME280;69172;52.352;5.006;2024-03-02T10:45:20;100063.88;;;9.01;84.03
79703;BME280;69172;52.352;5.006;2024-03-02T10:51:44;100073.28;;;9.35;82.36
79703;BME280;69172;52.352;5.006;2024-03-02T11:36:19;100062.41;;;9.76;72.43
79703;BME280;69172;52.352;5.006;2024-03-02T12:28:20;100024.34;;;10.24;68.26
79703;BME280;69172;52.352;5.006;2024-03-02T12:38:34;100011.03;;;10.32;67.58
79703;BME280;69172;52.352;5.006;2024-03-02T12:41:35;100011.25;;;10.38;67.71
79703;BME280;69172;52.352;5.006;2024-03-02T12:44:45;100001.56;;;10.52;66.41
79703;BME280;69172;52.352;5.006;2024-03-02T12:47:49;99995.72;;;10.54;66.54
79703;BME280;69172;52.352;5.006;2024-03-02T12:51:03;99992.25;;;10.54;67.05
79703;BME280;69172;52.352;5.006;2024-03-02T12:58:06;99994.38;;;10.85;64.54
79703;BME280;69172;52.352;5.006;2024-03-02T13:06:59;99964.84;;;10.75;62.06
79703;BME280;69172;52.352;5.006;2024-03-02T13:09:27;99985.97;;;10.89;60.50
79703;BME280;69172;52.352;5.006;2024-03-02T13:12:11;99984.34;;;10.91;61.00
79703;BME280;69172;52.352;5.006;2024-03-02T13:14:51;99983.72;;;10.96;61.37
79703;BME280;69172;52.352;5.006;2024-03-02T13:17:30;99992.88;;;11.10;62.14
79703;BME280;69172;52.352;5.006;2024-03-02T13:20:06;99974.47;;;11.01;61.47
79703;BME280;69172;52.352;5.006;2024-03-02T13:23:12;99963.31;;;11.01;59.77
79703;BME280;69172;52.352;5.006;2024-03-02T13:25:53;99971.69;;;11.17;60.01
79703;BME280;69172;52.352;5.006;2024-03-02T13:28:22;99973.88;;;11.29;58.68
79703;BME280;69172;52.352;5.006;2024-03-02T13:31:13;99967.72;;;11.25;58.98
79703;BME280;69172;52.352;5.006;2024-03-02T13:34:02;99959.81;;;11.21;58.75
79703;BME280;69172;52.352;5.006;2024-03-02T13:36:57;99972.69;;;11.21;58.81
79703;BME280;69172;52.352;5.006;2024-03-02T13:43:03;99952.63;;;11.12;58.65
79703;BME280;69172;52.352;5.006;2024-03-02T13:49:29;99941.16;;;11.26;58.60
79703;BME280;69172;52.352;5.006;2024-03-02T13:55:41;99951.69;;;11.55;58.23
79703;BME280;69172;52.352;5.006;2024-03-02T14:01:57;99946.00;;;12.09;56.50
79703;BME280;69172;52.352;5.006;2024-03-02T14:07:45;99930.84;;;12.43;57.41
79703;BME280;69172;52.352;5.006;2024-03-02T14:10:12;99944.09;;;12.54;56.48
79703;BME280;69172;52.352;5.006;2024-03-02T14:12:52;99937.47;;;12.62;55.92
79703;BME280;69172;52.352;5.006;2024-03-02T14:15:18;99930.06;;;12.71;56.30
79703;BME280;69172;52.352;5.006;2024-03-02T14:18:09;99935.69;;;12.86;56.34
79703;BME280;69172;52.352;5.006;2024-03-02T14:20:37;99930.09;;;12.99;55.96
79703;BME280;69172;52.352;5.006;2024-03-02T14:23:03;99929.41;;;13.05;54.96
79703;BME280;69172;52.352;5.006;2024-03-02T14:25:31;99913.78;;;13.27;55.18
79703;BME280;69172;52.352;5.006;2024-03-02T14:28:09;99921.28;;;13.48;54.08
79703;BME280;69172;52.352;5.006;2024-03-02T14:30:40;99905.25;;;13.59;54.18
79703;BME280;69172;52.352;5.006;2024-03-02T14:33:06;99889.13;;;13.68;54.05
79703;BME280;69172;52.352;5.006;2024-03-02T14:35:33;99900.66;;;13.81;53.63
79703;BME280;69172;52.352;5.006;2024-03-02T14:37:58;99883.50;;;13.51;54.62
79703;BME280;69172;52.352;5.006;2024-03-02T14:40:25;99886.25;;;13.57;55.67
79703;BME280;69172;52.352;5.006;2024-03-02T14:42:52;99888.22;;;13.66;55.90
79703;BME280;69172;52.352;5.006;2024-03-02T14:45:24;99891.72;;;13.68;54.78
79703;BME280;69172;52.352;5.006;2024-03-02T14:47:51;99894.59;;;13.79;53.98
79703;BME280;69172;52.352;5.006;2024-03-02T14:50:18;99903.97;;;13.45;55.60
79703;BME280;69172;52.352;5.006;2024-03-02T14:52:46;99885.81;;;13.13;56.07
79703;BME280;69172;52.352;5.006;2024-03-02T14:55:11;99889.81;;;13.31;54.99
79703;BME280;69172;52.352;5.006;2024-03-02T14:57:40;99895.13;;;13.37;55.75
79703;BME280;69172;52.352;5.006;2024-03-02T15:00:06;99900.63;;;13.20;56.31
79703;BME280;69172;52.352;5.006;2024-03-02T15:02:33;99915.94;;;13.13;57.45
79703;BME280;69172;52.352;5.006;2024-03-02T15:05:00;99912.13;;;12.76;58.21
79703;BME280;69172;52.352;5.006;2024-03-02T15:07:25;99902.00;;;12.55;59.23
79703;BME280;69172;52.352;5.006;2024-03-02T15:09:53;99921.91;;;12.59;59.35
79703;BME280;69172;52.352;5.006;2024-03-02T15:12:29;99910.91;;;12.39;59.31
79703;BME280;69172;52.352;5.006;2024-03-02T15:14:56;99911.81;;;12.40;60.16
79703;BME280;69172;52.352;5.006;2024-03-02T15:17:37;99899.34;;;12.27;60.23
79703;BME280;69172;52.352;5.006;2024-03-02T15:20:10;99883.16;;;12.06;61.11
79703;BME280;69172;52.352;5.006;2024-03-02T15:22:43;99924.91;;;12.21;61.47
79703;BME280;69172;52.352;5.006;2024-03-02T15:25:11;99904.59;;;12.05;61.38
79703;BME280;69172;52.352;5.006;2024-03-02T15:27:38;99908.06;;;12.07;61.86
79703;BME280;69172;52.352;5.006;2024-03-02T15:30:23;99892.56;;;12.05;62.01
79703;BME280;69172;52.352;5.006;2024-03-02T15:32:49;99895.72;;;12.22;61.61
79703;BME280;69172;52.352;5.006;2024-03-02T15:35:23;99901.03;;;12.26;61.28
79703;BME280;69172;52.352;5.006;2024-03-02T15:38:01;99899.56;;;12.33;61.54
79703;BME280;69172;52.352;5.006;2024-03-02T15:40:32;99893.72;;;12.38;60.98
79703;BME280;69172;52.352;5.006;2024-03-02T15:43:01;99890.16;;;12.35;60.85
79703;BME280;69172;52.352;5.006;2024-03-02T15:45:31;99918.66;;;12.39;61.84
79703;BME280;69172;52.352;5.006;2024-03-02T15:51:21;99902.66;;;11.99;62.82
79703;BME280;69172;52.352;5.006;2024-03-02T16:03:41;99892.72;;;11.84;64.01
79703;BME280;69172;52.352;5.006;2024-03-02T16:06:38;99885.94;;;11.88;63.74
79703;BME280;69172;52.352;5.006;2024-03-02T16:09:32;99876.41;;;11.85;64.49
79703;BME280;69172;52.352;5.006;2024-03-02T16:12:23;99866.19;;;11.87;64.25
79703;BME280;69172;52.352;5.006;2024-03-02T16:14:49;99844.22;;;11.73;64.29
79703;BME280;69172;52.352;5.006;2024-03-02T16:17:16;99851.66;;;11.89;63.92